createdAt,value
2022-10-05T00:00:18.775Z,15.60
2022-10-05T00:02:46.720Z,15.60
2022-10-05T00:05:21.858Z,15.50
2022-10-05T00:07:48.786Z,15.50
2022-10-05T00:10:18.314Z,15.40
2022-10-05T00:12:48.280Z,15.40
2022-10-05T00:15:23.977Z,15.40
2022-10-05T00:17:52.351Z,15.30
2022-10-05T00:20:25.069Z,15.20
2022-10-05T00:23:01.434Z,15.20
2022-10-05T00:25:28.544Z,15.20
2022-10-05T00:28:01.341Z,15.10
2022-10-05T00:30:34.593Z,15.10
2022-10-05T00:33:02.677Z,15.10
2022-10-05T00:35:32.640Z,15.10
2022-10-05T00:37:59.363Z,15.10
2022-10-05T00:40:48.343Z,15.00
2022-10-05T00:43:38.263Z,14.90
2022-10-05T00:46:23.591Z,14.90
2022-10-05T00:49:17.667Z,14.80
2022-10-05T00:51:53.433Z,14.80
2022-10-05T00:54:36.538Z,14.70
2022-10-05T00:57:38.499Z,14.70
2022-10-05T01:00:09.576Z,14.70
2022-10-05T01:02:39.053Z,14.70
2022-10-05T01:05:32.615Z,14.60
2022-10-05T01:08:42.827Z,14.60
2022-10-05T01:11:26.800Z,14.60
2022-10-05T01:14:12.973Z,14.60
2022-10-05T01:17:00.069Z,14.60
2022-10-05T01:19:42.803Z,14.50
2022-10-05T01:22:40.393Z,14.50
2022-10-05T01:25:42.783Z,14.40
2022-10-05T01:28:32.145Z,14.40
2022-10-05T01:31:03.929Z,14.40
2022-10-05T01:33:39.525Z,14.30
2022-10-05T01:36:20.266Z,14.30
2022-10-05T01:39:05.415Z,14.30
2022-10-05T01:41:41.162Z,14.30
2022-10-05T01:44:21.797Z,14.20
2022-10-05T01:47:07.145Z,14.20
2022-10-05T01:49:39.046Z,14.20
2022-10-05T01:52:13.123Z,14.10
2022-10-05T01:54:39.756Z,14.10
2022-10-05T01:57:06.425Z,14.10
2022-10-05T01:59:51.229Z,14.00
2022-10-05T02:02:20.738Z,14.00
2022-10-05T02:05:11.316Z,14.00
2022-10-05T02:07:50.009Z,14.00
2022-10-05T02:10:37.236Z,13.90
2022-10-05T02:13:13.031Z,13.90
2022-10-05T02:15:57.677Z,13.90
2022-10-05T02:18:40.700Z,13.90
2022-10-05T02:21:10.293Z,13.80
2022-10-05T02:23:41.408Z,13.90
2022-10-05T02:26:12.077Z,13.80
2022-10-05T02:28:53.649Z,13.80
2022-10-05T02:31:34.919Z,13.70
2022-10-05T02:34:23.339Z,13.70
2022-10-05T02:37:01.934Z,13.70
2022-10-05T02:39:40.151Z,13.70
2022-10-05T02:42:53.139Z,13.70
2022-10-05T02:45:26.303Z,13.60
2022-10-05T02:47:58.619Z,13.70
2022-10-05T02:50:45.677Z,13.70
2022-10-05T02:53:32.641Z,13.70
2022-10-05T02:56:37.494Z,13.70
2022-10-05T02:59:55.797Z,13.70
2022-10-05T03:02:41.328Z,13.70
2022-10-05T03:05:38.944Z,13.70
2022-10-05T03:08:34.272Z,13.70
2022-10-05T03:11:31.857Z,13.60
2022-10-05T03:14:24.863Z,13.60
2022-10-05T03:17:09.989Z,13.60
2022-10-05T03:20:14.403Z,13.60
2022-10-05T03:22:47.185Z,13.60
2022-10-05T03:25:29.156Z,13.60
2022-10-05T03:28:03.540Z,13.60
2022-10-05T03:30:42.763Z,13.60
2022-10-05T03:33:19.020Z,13.60
2022-10-05T03:35:56.737Z,13.60
2022-10-05T03:38:42.364Z,13.60
2022-10-05T03:41:20.334Z,13.60
2022-10-05T03:44:02.072Z,13.60
2022-10-05T03:46:43.010Z,13.60
2022-10-05T03:49:34.110Z,13.60
2022-10-05T03:52:11.213Z,13.60
2022-10-05T03:55:00.128Z,13.50
2022-10-05T03:57:32.239Z,13.50
2022-10-05T04:00:06.465Z,13.50
2022-10-05T04:02:45.428Z,13.50
2022-10-05T04:05:22.958Z,13.50
2022-10-05T04:07:59.808Z,13.50
2022-10-05T04:10:45.516Z,13.50
2022-10-05T04:13:41.401Z,13.50
2022-10-05T04:16:31.457Z,13.50
2022-10-05T04:19:14.733Z,13.60
2022-10-05T04:21:51.693Z,13.60
2022-10-05T04:24:39.187Z,13.70
2022-10-05T04:27:21.784Z,13.70
2022-10-05T04:30:12.963Z,13.80
2022-10-05T04:32:42.643Z,13.80
2022-10-05T04:35:40.116Z,13.80
2022-10-05T04:38:33.393Z,13.80
2022-10-05T04:41:03.257Z,13.80
2022-10-05T04:43:32.885Z,13.90
2022-10-05T04:46:04.685Z,13.90
2022-10-05T04:48:59.998Z,13.90
2022-10-05T04:51:33.796Z,13.90
2022-10-05T04:54:31.456Z,14.00
2022-10-05T04:57:07.078Z,14.00
2022-10-05T04:59:52.153Z,14.10
2022-10-05T05:02:56.244Z,14.10
2022-10-05T05:06:05.151Z,14.10
2022-10-05T05:08:52.504Z,14.00
2022-10-05T05:11:55.231Z,14.00
2022-10-05T05:14:22.010Z,14.10
2022-10-05T05:17:09.642Z,14.00
2022-10-05T05:20:09.702Z,14.00
2022-10-05T05:22:55.263Z,14.00
2022-10-05T05:25:45.823Z,14.00
2022-10-05T05:28:44.134Z,14.00
2022-10-05T05:31:28.025Z,14.00
2022-10-05T05:34:32.109Z,14.00
2022-10-05T05:37:12.640Z,14.00
2022-10-05T05:39:59.844Z,13.90
2022-10-05T05:42:51.592Z,13.90
2022-10-05T05:45:32.524Z,13.90
2022-10-05T05:48:02.964Z,13.80
2022-10-05T05:50:52.877Z,13.80
2022-10-05T05:53:32.009Z,13.80
2022-10-05T05:56:11.051Z,13.80
2022-10-05T05:58:58.652Z,13.80
2022-10-05T06:01:45.244Z,13.80
2022-10-05T06:04:46.790Z,13.80
2022-10-05T06:07:18.962Z,13.80
2022-10-05T06:10:24.865Z,13.80
2022-10-05T06:13:03.558Z,13.90
2022-10-05T06:15:40.998Z,13.90
2022-10-05T06:18:26.941Z,14.00
2022-10-05T06:21:02.237Z,14.00
2022-10-05T06:23:45.880Z,14.10
2022-10-05T06:26:43.729Z,14.10
2022-10-05T06:29:20.118Z,14.10
2022-10-05T06:32:03.190Z,14.10
2022-10-05T06:34:42.176Z,14.20
2022-10-05T06:37:37.782Z,14.30
2022-10-05T06:40:36.629Z,14.30
2022-10-05T06:43:06.728Z,14.30
2022-10-05T06:46:05.921Z,14.30
2022-10-05T06:49:14.664Z,14.30
2022-10-05T06:51:52.792Z,14.40
2022-10-05T06:54:33.431Z,14.40
2022-10-05T06:57:21.701Z,14.40
2022-10-05T07:00:01.004Z,14.50
2022-10-05T07:02:39.095Z,14.50
2022-10-05T07:05:31.512Z,14.50
2022-10-05T07:08:09.409Z,14.50
2022-10-05T07:10:45.332Z,14.50
2022-10-05T07:13:50.784Z,14.50
2022-10-05T07:16:52.847Z,14.60
2022-10-05T07:19:31.223Z,14.60
2022-10-05T07:22:34.480Z,14.60
2022-10-05T07:25:13.364Z,14.60
2022-10-05T07:28:07.895Z,14.70
2022-10-05T07:31:11.064Z,14.70
2022-10-05T07:34:07.204Z,14.80
2022-10-05T07:37:01.582Z,14.80
2022-10-05T07:40:00.600Z,14.80
2022-10-05T07:42:54.289Z,14.90
2022-10-05T07:45:41.149Z,14.90
2022-10-05T07:48:18.802Z,15.00
2022-10-05T07:50:57.548Z,15.10
2022-10-05T07:53:46.325Z,15.10
2022-10-05T07:56:38.006Z,15.20
2022-10-05T07:59:13.917Z,15.20
2022-10-05T08:01:48.076Z,15.30
2022-10-05T08:04:20.744Z,15.30
2022-10-05T08:06:53.382Z,15.40
2022-10-05T08:09:57.739Z,15.50
2022-10-05T08:12:35.745Z,15.60
2022-10-05T08:15:11.841Z,15.60
2022-10-05T08:17:53.614Z,15.60
2022-10-05T08:20:35.416Z,15.70
2022-10-05T08:23:24.600Z,15.70
2022-10-05T08:26:14.737Z,15.80
2022-10-05T08:29:13.793Z,15.90
2022-10-05T08:31:46.340Z,15.90
2022-10-05T08:34:40.739Z,16.00
2022-10-05T08:37:28.477Z,16.10
2022-10-05T08:40:04.445Z,16.20
2022-10-05T08:42:49.037Z,16.30
2022-10-05T08:45:49.047Z,16.30
2022-10-05T08:48:34.384Z,16.50
2022-10-05T08:51:49.662Z,16.70
2022-10-05T08:54:41.557Z,16.60
2022-10-05T08:57:17.411Z,16.60
2022-10-05T09:00:03.368Z,16.60
2022-10-05T09:02:37.156Z,16.60
2022-10-05T09:05:42.459Z,16.70
2022-10-05T09:08:52.516Z,16.70
2022-10-05T09:11:54.573Z,16.80
2022-10-05T09:14:39.127Z,16.80
2022-10-05T09:17:41.783Z,16.90
2022-10-05T09:20:31.003Z,17.10
2022-10-05T09:23:13.893Z,17.20
2022-10-05T09:26:01.140Z,17.20
2022-10-05T09:28:48.711Z,17.20
2022-10-05T09:31:42.552Z,17.30
2022-10-05T09:34:20.766Z,17.40
2022-10-05T09:37:26.827Z,17.50
2022-10-05T09:40:11.269Z,17.70
2022-10-05T09:42:37.855Z,17.80
2022-10-05T09:45:42.933Z,17.80
2022-10-05T09:48:12.253Z,17.90
2022-10-05T09:51:01.298Z,18.00
2022-10-05T09:54:15.975Z,18.10
2022-10-05T09:57:20.032Z,18.20
2022-10-05T10:00:17.782Z,18.30
2022-10-05T10:02:50.401Z,18.50
2022-10-05T10:05:32.287Z,18.60
2022-10-05T10:08:25.005Z,18.60
2022-10-05T10:10:57.255Z,18.70
2022-10-05T10:13:39.335Z,18.70
2022-10-05T10:16:12.174Z,18.70
2022-10-05T10:19:06.626Z,18.70
2022-10-05T10:22:06.077Z,18.80
2022-10-05T10:24:48.748Z,18.80
2022-10-05T10:27:40.367Z,18.80
2022-10-05T10:30:27.511Z,18.80
2022-10-05T10:33:11.551Z,18.80
2022-10-05T10:35:53.673Z,18.90
2022-10-05T10:39:00.601Z,18.90
2022-10-05T10:41:58.319Z,19.00
2022-10-05T10:44:48.319Z,19.00
2022-10-05T10:47:38.264Z,19.10
2022-10-05T10:50:28.778Z,19.20
2022-10-05T10:53:09.926Z,19.20
2022-10-05T10:56:11.942Z,19.20
2022-10-05T10:58:57.311Z,19.30
2022-10-05T11:01:52.690Z,19.30
2022-10-05T11:04:53.880Z,19.40
2022-10-05T11:07:29.282Z,19.40
2022-10-05T11:10:26.512Z,19.40
2022-10-05T11:13:32.142Z,19.40
2022-10-05T11:16:43.424Z,19.40
2022-10-05T11:20:03.022Z,19.40
2022-10-05T11:23:13.709Z,19.40
2022-10-05T11:25:49.323Z,19.40
2022-10-05T11:28:37.602Z,19.30
2022-10-05T11:31:21.535Z,19.30
2022-10-05T11:34:20.692Z,19.30
2022-10-05T11:37:07.701Z,19.40
2022-10-05T11:39:43.776Z,19.40
2022-10-05T11:42:36.685Z,19.40
2022-10-05T11:45:27.728Z,19.40
2022-10-05T11:48:15.856Z,19.40
2022-10-05T11:50:57.841Z,19.40
2022-10-05T11:53:35.172Z,19.40
2022-10-05T11:56:01.804Z,19.40
2022-10-05T11:58:56.031Z,19.40
2022-10-05T12:01:34.583Z,19.30
2022-10-05T12:04:28.803Z,19.40
2022-10-05T12:07:16.747Z,19.40
2022-10-05T12:10:17.101Z,19.40
2022-10-05T12:12:53.759Z,19.40
2022-10-05T12:15:40.780Z,19.40
2022-10-05T12:18:17.891Z,19.40
2022-10-05T12:20:56.338Z,19.40
2022-10-05T12:23:37.297Z,19.50
2022-10-05T12:26:19.768Z,19.50
2022-10-05T12:29:14.142Z,19.50
2022-10-05T12:32:07.400Z,19.50
2022-10-05T12:35:01.927Z,19.50
2022-10-05T12:37:43.375Z,19.50
2022-10-05T12:40:36.285Z,19.50
2022-10-05T12:43:18.892Z,19.50
2022-10-05T12:46:00.597Z,19.50
2022-10-05T12:49:03.070Z,19.50
2022-10-05T12:51:55.871Z,19.50
2022-10-05T12:54:46.448Z,19.50
2022-10-05T12:57:39.989Z,19.50
2022-10-05T13:00:19.018Z,19.50
2022-10-05T13:03:03.668Z,19.60
2022-10-05T13:06:01.767Z,19.60
2022-10-05T13:08:59.504Z,19.60
2022-10-05T13:11:49.381Z,19.60
2022-10-05T13:14:58.300Z,19.70
2022-10-05T13:17:37.323Z,19.70
2022-10-05T13:20:28.208Z,19.70
2022-10-05T13:23:13.490Z,19.70
2022-10-05T13:25:57.380Z,19.70
2022-10-05T13:29:04.577Z,19.70
2022-10-05T13:31:46.678Z,19.70
2022-10-05T13:34:34.034Z,19.70
2022-10-05T13:38:00.256Z,19.70
2022-10-05T13:40:39.259Z,19.70
2022-10-05T13:43:39.782Z,19.70
2022-10-05T13:46:33.355Z,19.70
2022-10-05T13:49:23.842Z,19.80
2022-10-05T13:52:19.962Z,19.80
2022-10-05T13:54:55.267Z,19.80
2022-10-05T13:57:45.297Z,19.80
2022-10-05T14:00:22.741Z,19.80
2022-10-05T14:02:58.207Z,19.80
2022-10-05T14:05:27.754Z,19.90
2022-10-05T14:07:56.022Z,19.90
2022-10-05T14:10:40.075Z,19.90
2022-10-05T14:13:31.550Z,19.80
2022-10-05T14:16:13.814Z,19.90
2022-10-05T14:19:04.441Z,19.90
2022-10-05T14:21:42.868Z,19.90
2022-10-05T14:24:43.806Z,20.00
2022-10-05T14:27:19.072Z,19.90
2022-10-05T14:30:12.870Z,20.00
2022-10-05T14:33:06.005Z,20.00
2022-10-05T14:35:57.814Z,20.00
2022-10-05T14:38:31.228Z,20.00
2022-10-05T14:41:20.836Z,20.00
2022-10-05T14:44:20.897Z,20.00
2022-10-05T14:46:58.780Z,20.10
2022-10-05T14:49:40.530Z,20.10
2022-10-05T14:52:32.577Z,20.10
2022-10-05T14:55:08.473Z,20.10
2022-10-05T14:57:39.840Z,20.10
2022-10-05T15:00:18.028Z,20.10
2022-10-05T15:03:18.092Z,20.10
2022-10-05T15:05:50.757Z,20.20
2022-10-05T15:08:45.206Z,20.20
2022-10-05T15:11:42.565Z,20.20
2022-10-05T15:14:32.302Z,20.20
2022-10-05T15:17:03.395Z,20.30
2022-10-05T15:19:47.289Z,20.30
2022-10-05T15:22:41.834Z,20.30
2022-10-05T15:25:15.725Z,20.30
2022-10-05T15:28:21.524Z,20.30
2022-10-05T15:31:03.893Z,20.30
2022-10-05T15:33:50.069Z,20.40
2022-10-05T15:36:16.997Z,20.40
2022-10-05T15:39:09.047Z,20.40
2022-10-05T15:42:01.480Z,20.40
2022-10-05T15:44:34.284Z,20.50
2022-10-05T15:47:13.856Z,20.50
2022-10-05T15:49:58.643Z,20.50
2022-10-05T15:52:33.896Z,20.50
2022-10-05T15:55:09.393Z,20.50
2022-10-05T15:57:48.652Z,20.60
2022-10-05T16:00:20.801Z,20.50
2022-10-05T16:03:12.656Z,20.60
2022-10-05T16:06:40.879Z,20.50
2022-10-05T16:09:20.027Z,20.60
2022-10-05T16:12:00.111Z,20.60
2022-10-05T16:14:54.666Z,20.50
2022-10-05T16:17:33.253Z,20.50
2022-10-05T16:20:20.732Z,20.50
2022-10-05T16:23:06.054Z,20.50
2022-10-05T16:25:52.354Z,20.60
2022-10-05T16:28:50.468Z,20.60
2022-10-05T16:31:50.515Z,20.60
2022-10-05T16:34:35.874Z,20.60
2022-10-05T16:37:28.235Z,20.60
2022-10-05T16:40:01.591Z,20.50
2022-10-05T16:42:58.155Z,20.60
2022-10-05T16:45:45.367Z,20.60
2022-10-05T16:48:25.032Z,20.60
2022-10-05T16:50:55.153Z,20.60
2022-10-05T16:53:35.283Z,20.60
2022-10-05T16:56:07.656Z,20.70
2022-10-05T16:58:57.105Z,20.60
2022-10-05T17:02:03.394Z,20.60
2022-10-05T17:05:05.880Z,20.70
2022-10-05T17:08:13.953Z,20.70
2022-10-05T17:11:15.996Z,20.70
2022-10-05T17:14:10.372Z,20.70
2022-10-05T17:17:04.356Z,20.60
2022-10-05T17:20:13.415Z,20.70
2022-10-05T17:22:48.683Z,20.70
2022-10-05T17:25:22.591Z,20.60
2022-10-05T17:27:53.905Z,20.60
2022-10-05T17:30:22.813Z,20.60
2022-10-05T17:33:26.457Z,20.60
2022-10-05T17:36:09.536Z,20.60
2022-10-05T17:39:15.108Z,20.60
2022-10-05T17:41:44.274Z,20.60
2022-10-05T17:44:17.098Z,20.50
2022-10-05T17:46:47.756Z,20.50
2022-10-05T17:49:46.933Z,20.50
2022-10-05T17:52:46.390Z,20.50
2022-10-05T17:55:42.521Z,20.40
2022-10-05T17:58:27.693Z,20.50
2022-10-05T18:00:57.793Z,20.40
2022-10-05T18:03:43.192Z,20.40
2022-10-05T18:06:33.588Z,20.30
2022-10-05T18:09:33.059Z,20.30
2022-10-05T18:12:25.381Z,20.30
2022-10-05T18:15:25.410Z,20.30
2022-10-05T18:18:20.874Z,20.30
2022-10-05T18:21:24.333Z,20.30
2022-10-05T18:23:59.885Z,20.30
2022-10-05T18:26:57.334Z,20.30
2022-10-05T18:30:08.896Z,20.30
2022-10-05T18:33:17.439Z,20.20
2022-10-05T18:36:05.573Z,20.20
2022-10-05T18:38:44.353Z,20.20
2022-10-05T18:41:35.095Z,20.20
2022-10-05T18:44:21.716Z,20.20
2022-10-05T18:47:18.505Z,20.10
2022-10-05T18:50:25.620Z,20.10
2022-10-05T18:53:03.347Z,20.10
2022-10-05T18:55:41.894Z,20.10
2022-10-05T18:58:22.240Z,20.10
2022-10-05T19:01:09.970Z,20.00
2022-10-05T19:03:59.272Z,20.00
2022-10-05T19:06:31.400Z,20.00
2022-10-05T19:09:23.130Z,19.90
2022-10-05T19:12:15.442Z,19.90
2022-10-05T19:14:58.287Z,19.90
2022-10-05T19:17:35.637Z,19.90
2022-10-05T19:20:40.205Z,19.90
2022-10-05T19:23:37.562Z,19.90
2022-10-05T19:26:32.178Z,19.90
2022-10-05T19:29:11.820Z,19.90
2022-10-05T19:32:00.071Z,19.80
2022-10-05T19:34:38.266Z,19.80
2022-10-05T19:37:40.833Z,19.70
2022-10-05T19:40:19.664Z,19.80
2022-10-05T19:43:08.792Z,19.80
2022-10-05T19:46:05.499Z,19.70
2022-10-05T19:48:36.631Z,19.70
2022-10-05T19:51:27.678Z,19.70
2022-10-05T19:53:57.187Z,19.70
2022-10-05T19:56:28.745Z,19.70
2022-10-05T19:58:58.283Z,19.60
2022-10-05T20:01:30.899Z,19.70
2022-10-05T20:04:00.796Z,19.60
2022-10-05T20:06:29.426Z,19.50
2022-10-05T20:09:00.016Z,19.40
2022-10-05T20:11:28.359Z,19.40
2022-10-05T20:13:55.149Z,19.40
2022-10-05T20:16:54.745Z,19.30
2022-10-05T20:19:54.292Z,19.30
2022-10-05T20:22:28.461Z,19.20
2022-10-05T20:25:09.142Z,19.20
2022-10-05T20:27:42.969Z,19.20
2022-10-05T20:30:12.658Z,19.20
2022-10-05T20:32:39.639Z,19.30
2022-10-05T20:35:07.023Z,19.10
2022-10-05T20:37:34.062Z,19.10
2022-10-05T20:40:00.860Z,19.00
2022-10-05T20:42:27.519Z,19.00
2022-10-05T20:44:56.993Z,19.00
2022-10-05T20:47:27.048Z,19.00
2022-10-05T20:49:55.844Z,18.90
2022-10-05T20:52:23.333Z,18.90
2022-10-05T20:54:53.891Z,18.80
2022-10-05T20:57:21.305Z,18.80
2022-10-05T20:59:49.581Z,18.80
2022-10-05T21:02:16.506Z,18.80
2022-10-05T21:04:47.524Z,18.80
2022-10-05T21:07:17.765Z,18.90
2022-10-05T21:09:46.507Z,18.90
2022-10-05T21:12:14.352Z,18.90
2022-10-05T21:14:41.073Z,18.90
2022-10-05T21:17:10.717Z,18.90
2022-10-05T21:19:40.697Z,18.90
2022-10-05T21:22:08.890Z,18.90
2022-10-05T21:24:37.001Z,18.90
2022-10-05T21:27:05.022Z,18.90
2022-10-05T21:29:33.037Z,18.90
2022-10-05T21:31:59.959Z,18.90
2022-10-05T21:34:26.669Z,18.90
2022-10-05T21:36:54.276Z,18.90
2022-10-05T21:39:21.002Z,18.90
2022-10-05T21:41:49.835Z,18.90
2022-10-05T21:44:16.826Z,18.90
2022-10-05T21:46:44.763Z,18.90
2022-10-05T21:49:13.340Z,18.90
2022-10-05T21:51:43.189Z,19.00
2022-10-05T21:54:13.013Z,19.00
2022-10-05T21:56:46.936Z,19.00
2022-10-05T21:59:16.283Z,19.00
2022-10-05T22:01:43.003Z,19.00
2022-10-05T22:04:09.728Z,19.00
2022-10-05T22:06:36.724Z,19.00
2022-10-05T22:09:05.192Z,19.00
2022-10-05T22:11:32.920Z,18.90
2022-10-05T22:14:02.967Z,18.90
2022-10-05T22:16:32.964Z,18.90
2022-10-05T22:19:03.720Z,18.90
2022-10-05T22:21:32.797Z,19.00
2022-10-05T22:24:02.405Z,19.00
2022-10-05T22:26:29.606Z,19.00
2022-10-05T22:28:57.670Z,19.00
2022-10-05T22:31:24.482Z,19.10
2022-10-05T22:33:51.885Z,19.00
2022-10-05T22:36:19.706Z,19.00
2022-10-05T22:38:47.804Z,19.10
2022-10-05T22:41:15.414Z,19.10
2022-10-05T22:43:48.598Z,19.10
2022-10-05T22:46:20.648Z,19.10
2022-10-05T22:48:49.685Z,19.10
2022-10-05T22:51:17.042Z,19.20
2022-10-05T22:53:44.978Z,19.20
2022-10-05T22:56:13.837Z,19.20
2022-10-05T22:58:42.461Z,19.20
2022-10-05T23:01:12.663Z,19.10
2022-10-05T23:03:39.581Z,19.00
2022-10-05T23:06:14.547Z,19.00
2022-10-05T23:08:42.381Z,19.00
2022-10-05T23:11:13.177Z,18.90
2022-10-05T23:13:40.600Z,18.90
2022-10-05T23:16:09.326Z,18.80
2022-10-05T23:18:39.292Z,18.80
2022-10-05T23:21:09.827Z,18.80
2022-10-05T23:23:40.543Z,18.70
2022-10-05T23:26:08.601Z,18.70
2022-10-05T23:28:35.352Z,18.70
2022-10-05T23:31:07.299Z,18.70
2022-10-05T23:33:37.169Z,18.80
2022-10-05T23:36:08.024Z,18.70
2022-10-05T23:38:36.143Z,18.70
2022-10-05T23:41:02.984Z,18.70
2022-10-05T23:43:30.006Z,18.60
2022-10-05T23:45:56.826Z,18.70
2022-10-05T23:48:23.945Z,18.70
2022-10-05T23:50:51.625Z,18.70
2022-10-05T23:53:19.120Z,18.70
2022-10-05T23:55:51.425Z,18.70
2022-10-05T23:58:18.502Z,18.70
